PHBAC EHRD-EHRD
Flight info
| Callsign | PHBAC |
|---|---|
| Flight time | 0h 19m |
| Altitude | 1000 |
| Route | EHRD T/G EHRD |
| Aircraft | DA62/L-V/N |
Departure
| Time | 2026-05-06 18:04 |
|---|---|
| Airport | Rotterdam The Hague Airport (EHRD) |
Arrival
| Time | 2026-05-06 18:24 |
|---|---|
| Airport | Rotterdam The Hague Airport (EHRD) |
| Time | Latitude | Longitude | Altitude | Speed | Heading |
|---|---|---|---|---|---|
| 2026-05-06 17:47 | 51.95035 | 4.42831 | -5 ft | 0 kts | 324° |
| 2026-05-06 17:57 | 51.95036 | 4.42831 | -5 ft | 1 kts | 328° |
| 2026-05-06 17:57 | 51.95045 | 4.42833 | -5 ft | 1 kts | 49° |
| 2026-05-06 17:58 | 51.95059 | 4.42894 | -5 ft | 10 kts | 72° |
| 2026-05-06 17:58 | 51.95083 | 4.42978 | -5 ft | 15 kts | 57° |
| 2026-05-06 17:58 | 51.95134 | 4.43094 | -5 ft | 15 kts | 52° |
| 2026-05-06 17:58 | 51.95181 | 4.43097 | -4 ft | 0 kts | 355° |
| 2026-05-06 18:00 | 51.95245 | 4.43100 | -4 ft | 22 kts | 3° |
| 2026-05-06 18:00 | 51.95365 | 4.43212 | -4 ft | 30 kts | 57° |
| 2026-05-06 18:00 | 51.95594 | 4.43787 | 5 ft | 84 kts | 58° |
| 2026-05-06 18:00 | 51.95959 | 4.44693 | 178 ft | 105 kts | 59° |
| 2026-05-06 18:01 | 51.96352 | 4.45688 | 319 ft | 96 kts | 56° |
| 2026-05-06 18:01 | 51.96735 | 4.46532 | 403 ft | 93 kts | 44° |
| 2026-05-06 18:01 | 51.97377 | 4.46648 | 335 ft | 110 kts | 323° |
| 2026-05-06 18:01 | 51.97317 | 4.45499 | 316 ft | 118 kts | 235° |
| 2026-05-06 18:02 | 51.96784 | 4.44518 | 378 ft | 115 kts | 228° |
| 2026-05-06 18:02 | 51.96282 | 4.43531 | 448 ft | 112 kts | 236° |
| 2026-05-06 18:02 | 51.95819 | 4.42495 | 433 ft | 115 kts | 233° |
| 2026-05-06 18:02 | 51.95298 | 4.41565 | 434 ft | 102 kts | 209° |
| 2026-05-06 18:03 | 51.94904 | 4.42012 | 391 ft | 82 kts | 76° |
| 2026-05-06 18:03 | 51.95227 | 4.42854 | 63 ft | 82 kts | 58° |
| 2026-05-06 18:03 | 51.95499 | 4.43548 | 0 ft | 64 kts | 59° |
| 2026-05-06 18:03 | 51.95776 | 4.44234 | -5 ft | 90 kts | 57° |
| 2026-05-06 18:04 | 51.96133 | 4.45139 | 287 ft | 93 kts | 56° |
| 2026-05-06 18:04 | 51.96537 | 4.46070 | 468 ft | 114 kts | 47° |
| 2026-05-06 18:04 | 51.97277 | 4.46520 | 638 ft | 133 kts | 350° |
| 2026-05-06 18:04 | 51.97593 | 4.45107 | 509 ft | 166 kts | 252° |
| 2026-05-06 18:05 | 51.97240 | 4.43739 | 534 ft | 108 kts | 245° |
| 2026-05-06 18:05 | 51.96860 | 4.42702 | 437 ft | 100 kts | 236° |
| 2026-05-06 18:05 | 51.96472 | 4.41808 | 287 ft | 96 kts | 233° |
| 2026-05-06 18:05 | 51.96014 | 4.40914 | 337 ft | 104 kts | 223° |
| 2026-05-06 18:06 | 51.95385 | 4.40655 | 336 ft | 93 kts | 157° |
| 2026-05-06 18:06 | 51.94874 | 4.41182 | 334 ft | 84 kts | 120° |
| 2026-05-06 18:06 | 51.94913 | 4.42042 | 235 ft | 87 kts | 60° |
| 2026-05-06 18:06 | 51.95242 | 4.42880 | 80 ft | 89 kts | 57° |
| 2026-05-06 18:07 | 51.95561 | 4.43710 | -4 ft | 72 kts | 59° |
| 2026-05-06 18:07 | 51.95820 | 4.44353 | -6 ft | 80 kts | 57° |
| 2026-05-06 18:07 | 51.96153 | 4.45174 | 220 ft | 89 kts | 56° |
| 2026-05-06 18:07 | 51.96589 | 4.45991 | 474 ft | 102 kts | 32° |
| 2026-05-06 18:08 | 51.97321 | 4.45808 | 656 ft | 130 kts | 314° |
| 2026-05-06 18:08 | 51.97351 | 4.44244 | 679 ft | 159 kts | 245° |
| 2026-05-06 18:08 | 51.96700 | 4.42751 | 905 ft | 164 kts | 232° |
| 2026-05-06 18:08 | 51.96033 | 4.41373 | 667 ft | 122 kts | 231° |
| 2026-05-06 18:09 | 51.95479 | 4.40730 | 526 ft | 90 kts | 181° |
| 2026-05-06 18:09 | 51.95029 | 4.41274 | 362 ft | 85 kts | 111° |
| 2026-05-06 18:09 | 51.95028 | 4.42180 | 173 ft | 81 kts | 71° |
| 2026-05-06 18:09 | 51.95301 | 4.43048 | 38 ft | 86 kts | 58° |
| 2026-05-06 18:10 | 51.95563 | 4.43723 | -5 ft | 55 kts | 56° |
| 2026-05-06 18:10 | 51.95825 | 4.44361 | 36 ft | 81 kts | 57° |
| 2026-05-06 18:10 | 51.96194 | 4.45216 | 253 ft | 98 kts | 56° |
| 2026-05-06 18:10 | 51.96598 | 4.46088 | 534 ft | 86 kts | 41° |
| 2026-05-06 18:11 | 51.97122 | 4.46242 | 405 ft | 82 kts | 332° |
| 2026-05-06 18:11 | 51.97265 | 4.45263 | 282 ft | 102 kts | 255° |
| 2026-05-06 18:11 | 51.96938 | 4.44301 | 242 ft | 96 kts | 230° |
| 2026-05-06 18:11 | 51.96514 | 4.43508 | 270 ft | 89 kts | 229° |
| 2026-05-06 18:12 | 51.96153 | 4.42723 | 348 ft | 84 kts | 231° |
| 2026-05-06 18:12 | 51.95759 | 4.41967 | 304 ft | 90 kts | 227° |
| 2026-05-06 18:12 | 51.95280 | 4.41281 | 355 ft | 92 kts | 213° |
| 2026-05-06 18:12 | 51.94696 | 4.41084 | 369 ft | 80 kts | 165° |
| 2026-05-06 18:13 | 51.94095 | 4.41155 | 404 ft | 93 kts | 191° |
| 2026-05-06 18:13 | 51.94102 | 4.40406 | 394 ft | 92 kts | 10° |
| 2026-05-06 18:13 | 51.94522 | 4.41064 | 304 ft | 86 kts | 60° |
| 2026-05-06 18:13 | 51.94808 | 4.41823 | 198 ft | 79 kts | 57° |
| 2026-05-06 18:14 | 51.95111 | 4.42569 | 96 ft | 84 kts | 56° |
| 2026-05-06 18:14 | 51.95425 | 4.43363 | 8 ft | 83 kts | 58° |
| 2026-05-06 18:14 | 51.95690 | 4.44022 | -4 ft | 75 kts | 57° |
| 2026-05-06 18:14 | 51.96011 | 4.44815 | 157 ft | 87 kts | 55° |
| 2026-05-06 18:15 | 51.96372 | 4.45642 | 454 ft | 93 kts | 51° |
| 2026-05-06 18:15 | 51.96963 | 4.46012 | 743 ft | 102 kts | 352° |
| 2026-05-06 18:15 | 51.97301 | 4.45094 | 1083 ft | 124 kts | 257° |
| 2026-05-06 18:15 | 51.96741 | 4.43830 | 916 ft | 159 kts | 234° |
| 2026-05-06 18:16 | 51.96140 | 4.42537 | 613 ft | 123 kts | 233° |
| 2026-05-06 18:16 | 51.95689 | 4.41566 | 445 ft | 108 kts | 231° |
| 2026-05-06 18:16 | 51.95224 | 4.40618 | 565 ft | 107 kts | 224° |
| 2026-05-06 18:16 | 51.94648 | 4.40455 | 504 ft | 89 kts | 126° |
| 2026-05-06 18:17 | 51.94699 | 4.41411 | 300 ft | 93 kts | 61° |
| 2026-05-06 18:17 | 51.95027 | 4.42323 | 123 ft | 96 kts | 58° |
| 2026-05-06 18:17 | 51.95378 | 4.43233 | 11 ft | 88 kts | 58° |
| 2026-05-06 18:17 | 51.95635 | 4.43889 | -5 ft | 64 kts | 55° |
| 2026-05-06 18:18 | 51.95942 | 4.44636 | 55 ft | 91 kts | 54° |
| 2026-05-06 18:18 | 51.96343 | 4.45533 | 350 ft | 100 kts | 50° |
| 2026-05-06 18:18 | 51.96889 | 4.46256 | 563 ft | 117 kts | 11° |
| 2026-05-06 18:18 | 51.97321 | 4.45191 | 591 ft | 158 kts | 249° |
| 2026-05-06 18:19 | 51.96573 | 4.43775 | 674 ft | 169 kts | 226° |
| 2026-05-06 18:19 | 51.95769 | 4.42361 | 718 ft | 157 kts | 228° |
| 2026-05-06 18:19 | 51.95213 | 4.41237 | 750 ft | 112 kts | 232° |
| 2026-05-06 18:19 | 51.94653 | 4.40606 | 682 ft | 97 kts | 168° |
| 2026-05-06 18:20 | 51.94500 | 4.41331 | 409 ft | 89 kts | 48° |
| 2026-05-06 18:20 | 51.94888 | 4.42033 | 204 ft | 82 kts | 54° |
| 2026-05-06 18:20 | 51.95187 | 4.42769 | 58 ft | 76 kts | 57° |
| 2026-05-06 18:20 | 51.95489 | 4.43523 | 248 ft | 81 kts | 57° |
| 2026-05-06 18:21 | 51.95805 | 4.44271 | 424 ft | 79 kts | 47° |
| 2026-05-06 18:21 | 51.96336 | 4.44487 | 466 ft | 92 kts | 341° |
| 2026-05-06 18:21 | 51.96634 | 4.43518 | 484 ft | 107 kts | 264° |
| 2026-05-06 18:21 | 51.96307 | 4.42524 | 405 ft | 95 kts | 236° |
| 2026-05-06 18:22 | 51.95932 | 4.41684 | 333 ft | 92 kts | 231° |
| 2026-05-06 18:22 | 51.95512 | 4.40920 | 291 ft | 91 kts | 226° |
| 2026-05-06 18:22 | 51.95044 | 4.40241 | 374 ft | 87 kts | 199° |
| 2026-05-06 18:22 | 51.94602 | 4.40566 | 330 ft | 76 kts | 95° |
| 2026-05-06 18:23 | 51.94746 | 4.41403 | 262 ft | 78 kts | 65° |
| 2026-05-06 18:23 | 51.95003 | 4.42239 | 151 ft | 87 kts | 62° |
| 2026-05-06 18:23 | 51.95319 | 4.43089 | 31 ft | 89 kts | 57° |
| 2026-05-06 18:23 | 51.95633 | 4.43891 | -5 ft | 66 kts | 58° |
| 2026-05-06 18:24 | 51.95796 | 4.44319 | -6 ft | 34 kts | 59° |
| 2026-05-06 18:24 | 51.95900 | 4.44613 | -7 ft | 26 kts | 75° |
| 2026-05-06 18:24 | 51.95821 | 4.44761 | -5 ft | 13 kts | 174° |
| 2026-05-06 18:24 | 51.95806 | 4.44762 | -5 ft | 0 kts | 183° |
| 2026-05-06 18:25 | 51.95760 | 4.44698 | -5 ft | 25 kts | 236° |
| 2026-05-06 18:25 | 51.95628 | 4.44363 | -4 ft | 44 kts | 238° |
| 2026-05-06 18:26 | 51.95468 | 4.43966 | -5 ft | 39 kts | 237° |
| 2026-05-06 18:26 | 51.95337 | 4.43634 | -5 ft | 31 kts | 237° |
| 2026-05-06 18:26 | 51.95256 | 4.43435 | -5 ft | 16 kts | 237° |
| 2026-05-06 18:26 | 51.95195 | 4.43281 | -5 ft | 16 kts | 236° |
| 2026-05-06 18:27 | 51.95157 | 4.43183 | -5 ft | 0 kts | 243° |
| 2026-05-06 18:28 | 51.95157 | 4.43182 | -5 ft | 1 kts | 243° |
| 2026-05-06 18:28 | 51.95154 | 4.43173 | -5 ft | 0 kts | 243° |
| 2026-05-06 18:29 | 51.95154 | 4.43172 | -5 ft | 0 kts | 243° |